Shavano Park, Texas
Current Conditions -  °F | °C
As of 5:51 AM on Tuesday 21 Oct 2014 (Local Time) from KSAT Reporting Station
Scattered Clouds Scattered Clouds  
Wind Chill: 65°   Ceiling: Unl
Heat Index: 65°   Visibility: 10mi
Dew Point: 59°   Wind: 5mph
Humidity: 81%   Direction: 10°N
Pressure: 30.03"   Gusts: NA
Location:  29.5766°N, 98.5421°W
Report Text: KSAT 211051Z 01004KT 10SM SCT250 18/15 A3003 RMK AO2 SLP154 T01830150
Loading
Personal Weather Stations






























Interactive Weather Map
Tropical Storm Tracking
New forecast layout! Learn more

10-Day Weather Forecast

Advertisements
Track Severe Weather on mobile